createdAt,value
2023-01-12T00:02:24.008Z,2.33
2023-01-12T00:04:52.988Z,2.30
2023-01-12T00:07:22.295Z,2.72
2023-01-12T00:12:23.846Z,2.38
2023-01-12T00:15:04.858Z,2.10
2023-01-12T00:17:36.584Z,2.20
2023-01-12T00:20:09.898Z,2.60
2023-01-12T00:22:37.612Z,2.33
2023-01-12T00:25:16.501Z,2.63
2023-01-12T00:27:49.505Z,2.80
2023-01-12T00:30:24.492Z,2.17
2023-01-12T00:32:51.809Z,2.13
2023-01-12T00:35:24.528Z,2.50
2023-01-12T00:37:54.165Z,2.75
2023-01-12T00:40:24.689Z,2.78
2023-01-12T00:43:14.045Z,2.50
2023-01-12T00:45:43.548Z,2.28
2023-01-12T00:48:12.831Z,2.05
2023-01-12T00:50:39.665Z,2.72
2023-01-12T00:53:14.009Z,2.50
2023-01-12T00:55:43.182Z,1.90
2023-01-12T00:58:22.534Z,2.45
2023-01-12T01:00:54.933Z,3.25
2023-01-12T01:03:22.067Z,2.65
2023-01-12T01:05:54.756Z,2.10
2023-01-12T01:08:28.730Z,2.05
2023-01-12T01:11:11.322Z,2.15
2023-01-12T01:13:48.358Z,3.05
2023-01-12T01:16:19.872Z,2.60
2023-01-12T01:18:57.828Z,2.00
2023-01-12T01:21:31.446Z,2.75
2023-01-12T01:24:11.479Z,2.13
2023-01-12T01:26:38.707Z,2.05
2023-01-12T01:29:08.526Z,2.22
2023-01-12T01:31:38.046Z,1.70
2023-01-12T01:36:31.716Z,2.10
2023-01-12T01:38:58.740Z,2.33
2023-01-12T01:41:33.837Z,1.98
2023-01-12T01:44:03.098Z,2.40
2023-01-12T01:46:50.642Z,2.25
2023-01-12T01:49:34.639Z,2.25
2023-01-12T01:52:10.848Z,2.63
2023-01-12T01:54:48.718Z,2.75
2023-01-12T01:57:18.467Z,2.88
2023-01-12T01:59:52.920Z,2.95
2023-01-12T02:02:20.257Z,2.38
2023-01-12T02:04:53.987Z,2.35
2023-01-12T02:07:26.562Z,3.15
2023-01-12T02:09:55.646Z,2.92
2023-01-12T02:12:42.286Z,2.47
2023-01-12T02:15:28.981Z,2.97
2023-01-12T02:17:58.490Z,2.58
2023-01-12T02:20:49.862Z,2.15
2023-01-12T02:23:34.429Z,2.30
2023-01-12T02:26:12.915Z,2.95
2023-01-12T02:29:13.757Z,2.70
2023-01-12T02:31:50.975Z,2.30
2023-01-12T02:35:02.424Z,2.25
2023-01-12T02:37:38.857Z,2.38
2023-01-12T02:40:44.253Z,2.00
2023-01-12T02:43:28.368Z,2.88
2023-01-12T02:46:25.365Z,1.98
2023-01-12T02:49:15.561Z,2.58
2023-01-12T02:52:05.561Z,2.20
2023-01-12T02:54:40.794Z,2.08
2023-01-12T02:57:12.458Z,2.55
2023-01-12T02:59:51.815Z,2.70
2023-01-12T03:02:36.375Z,3.17
2023-01-12T03:05:17.175Z,2.63
2023-01-12T03:08:01.830Z,2.63
2023-01-12T03:10:40.979Z,2.63
2023-01-12T03:13:11.025Z,2.45
2023-01-12T03:15:42.054Z,3.08
2023-01-12T03:18:16.414Z,2.20
2023-01-12T03:21:07.797Z,3.17
2023-01-12T03:23:47.936Z,2.33
2023-01-12T03:26:19.363Z,2.90
2023-01-12T03:28:54.597Z,2.45
2023-01-12T03:31:23.439Z,3.38
2023-01-12T03:33:51.083Z,2.40
2023-01-12T03:36:52.339Z,2.40
2023-01-12T03:39:40.250Z,2.67
2023-01-12T03:42:14.278Z,2.70
2023-01-12T03:45:12.936Z,2.10
2023-01-12T03:47:50.912Z,2.65
2023-01-12T03:50:35.061Z,2.25
2023-01-12T03:53:14.699Z,2.20
2023-01-12T03:55:52.587Z,2.70
2023-01-12T03:58:22.668Z,2.13
2023-01-12T04:00:51.981Z,2.22
2023-01-12T04:03:26.397Z,3.25
2023-01-12T04:05:55.688Z,2.72
2023-01-12T04:08:28.570Z,2.42
2023-01-12T04:10:56.200Z,2.97
2023-01-12T04:13:22.987Z,2.80
2023-01-12T04:15:49.829Z,2.30
2023-01-12T04:18:16.442Z,2.00
2023-01-12T04:20:43.122Z,2.35
2023-01-12T04:23:10.176Z,2.80
2023-01-12T04:25:37.042Z,2.60
2023-01-12T04:28:07.241Z,2.47
2023-01-12T04:30:34.741Z,3.08
2023-01-12T04:33:09.312Z,2.22
2023-01-12T04:35:36.073Z,2.55
2023-01-12T04:38:07.586Z,2.60
2023-01-12T04:40:38.450Z,2.25
2023-01-12T04:43:07.973Z,2.25
2023-01-12T04:45:43.866Z,2.20
2023-01-12T04:48:13.133Z,2.78
2023-01-12T04:50:40.654Z,2.45
2023-01-12T04:53:10.231Z,2.47
2023-01-12T04:55:39.263Z,3.75
2023-01-12T04:58:09.187Z,2.58
2023-01-12T05:00:39.915Z,2.53
2023-01-12T05:03:13.202Z,2.33
2023-01-12T05:05:40.085Z,2.20
2023-01-12T05:08:30.065Z,2.53
2023-01-12T05:11:01.514Z,3.30
2023-01-12T05:13:31.956Z,2.03
2023-01-12T05:16:18.956Z,2.10
2023-01-12T05:18:53.388Z,3.20
2023-01-12T05:21:27.260Z,2.38
2023-01-12T05:23:54.192Z,2.22
2023-01-12T05:26:20.833Z,2.92
2023-01-12T05:28:52.099Z,2.28
2023-01-12T05:31:19.689Z,2.47
2023-01-12T05:33:46.733Z,2.55
2023-01-12T05:36:21.749Z,2.72
2023-01-12T05:38:53.752Z,3.13
2023-01-12T05:42:03.473Z,2.40
2023-01-12T05:44:41.380Z,2.42
2023-01-12T05:47:12.852Z,2.92
2023-01-12T05:49:53.630Z,3.08
2023-01-12T05:52:23.541Z,2.65
2023-01-12T05:54:53.358Z,2.35
2023-01-12T05:57:21.351Z,2.03
2023-01-12T05:59:54.757Z,2.05
2023-01-12T06:02:29.702Z,2.60
2023-01-12T06:05:00.698Z,2.80
2023-01-12T06:07:32.507Z,2.45
2023-01-12T06:10:00.801Z,2.40
2023-01-12T06:12:45.869Z,2.13
2023-01-12T06:15:15.114Z,2.10
2023-01-12T06:20:15.002Z,2.50
2023-01-12T06:22:44.829Z,2.28
2023-01-12T06:25:11.920Z,2.65
2023-01-12T06:27:39.080Z,2.90
2023-01-12T06:30:14.634Z,2.58
2023-01-12T06:32:42.931Z,2.22
2023-01-12T06:35:19.195Z,2.67
2023-01-12T06:37:46.890Z,2.97
2023-01-12T06:40:13.795Z,3.22
2023-01-12T06:42:42.326Z,2.42
2023-01-12T06:45:09.762Z,2.63
2023-01-12T06:47:44.672Z,2.55
2023-01-12T06:50:12.908Z,3.38
2023-01-12T06:52:39.459Z,4.30
2023-01-12T06:55:10.395Z,2.65
2023-01-12T06:57:39.136Z,2.38
2023-01-12T07:00:09.538Z,2.30
2023-01-12T07:02:41.251Z,2.00
2023-01-12T07:05:17.678Z,2.70
2023-01-12T07:07:47.099Z,2.45
2023-01-12T07:10:17.530Z,2.28
2023-01-12T07:12:44.565Z,2.38
2023-01-12T07:15:13.940Z,2.05
2023-01-12T07:20:07.886Z,2.78
2023-01-12T07:22:34.626Z,1.88
2023-01-12T07:25:01.318Z,2.40
2023-01-12T07:27:28.031Z,2.70
2023-01-12T07:29:57.566Z,2.55
2023-01-12T07:32:29.504Z,2.05
2023-01-12T07:34:56.349Z,2.50
2023-01-12T07:37:22.920Z,2.35
2023-01-12T07:39:49.938Z,2.97
2023-01-12T07:42:28.861Z,2.38
2023-01-12T07:44:56.431Z,2.50
2023-01-12T07:47:27.162Z,2.35
2023-01-12T07:49:56.673Z,2.00
2023-01-12T07:52:24.214Z,2.83
2023-01-12T07:54:56.921Z,2.47
2023-01-12T07:57:29.972Z,2.20
2023-01-12T07:59:58.859Z,1.50
2023-01-12T08:03:42.705Z,2.40
2023-01-12T08:06:07.528Z,2.13
2023-01-12T08:10:08.811Z,2.92
2023-01-12T08:13:49.688Z,2.38
2023-01-12T08:16:37.893Z,2.30
2023-01-12T08:19:38.879Z,2.53
2023-01-12T08:23:41.716Z,2.58
2023-01-12T08:26:42.073Z,2.17
2023-01-12T08:29:41.152Z,1.88
2023-01-12T08:32:43.486Z,2.22
2023-01-12T08:35:16.797Z,2.55
2023-01-12T08:37:55.527Z,2.63
2023-01-12T08:40:53.251Z,2.35
2023-01-12T08:44:41.093Z,2.05
2023-01-12T08:51:29.495Z,2.08
2023-01-12T08:54:00.388Z,2.40
2023-01-12T08:56:27.593Z,3.05
2023-01-12T08:58:54.833Z,2.10
2023-01-12T09:02:25.554Z,2.20
2023-01-12T09:12:18.436Z,2.45
2023-01-12T09:14:49.542Z,1.70
2023-01-12T09:17:18.365Z,2.25
2023-01-12T09:19:51.334Z,1.67
2023-01-12T09:22:22.474Z,2.20
2023-01-12T09:24:50.528Z,2.10
2023-01-12T09:27:20.365Z,2.03
2023-01-12T09:29:48.148Z,2.30
2023-01-12T09:32:22.842Z,2.13
2023-01-12T09:34:50.431Z,1.67
2023-01-12T09:41:16.683Z,1.75
2023-01-12T09:47:33.722Z,2.70
2023-01-12T09:50:50.194Z,1.77
2023-01-12T09:53:47.328Z,2.20
2023-01-12T09:57:33.212Z,1.50
2023-01-12T10:00:57.827Z,1.83
2023-01-12T10:07:26.684Z,2.20
2023-01-12T10:14:25.697Z,2.20
2023-01-12T10:17:50.581Z,1.90
2023-01-12T10:21:04.903Z,2.20
2023-01-12T10:24:24.691Z,2.22
2023-01-12T10:27:36.878Z,1.65
2023-01-12T10:30:47.937Z,2.13
2023-01-12T10:33:55.919Z,2.30
2023-01-12T10:37:14.969Z,1.85
2023-01-12T10:39:50.608Z,2.05
2023-01-12T10:42:49.990Z,1.80
2023-01-12T10:52:49.913Z,1.70
2023-01-12T10:56:05.790Z,2.08
2023-01-12T10:59:38.809Z,1.80
2023-01-12T11:02:26.666Z,1.70
2023-01-12T11:05:36.778Z,1.48
2023-01-12T11:09:11.530Z,1.33
2023-01-12T11:12:36.491Z,1.55
2023-01-12T11:15:41.898Z,1.58
2023-01-12T11:25:16.260Z,1.60
2023-01-12T11:28:50.697Z,1.70
2023-01-12T11:31:38.996Z,1.58
2023-01-12T11:34:48.991Z,1.38
2023-01-12T11:41:34.885Z,1.17
2023-01-12T11:48:05.738Z,1.20
2023-01-12T11:53:50.006Z,1.20
2023-01-12T11:57:12.249Z,1.20
2023-01-12T12:00:10.821Z,1.08
2023-01-12T12:03:09.942Z,0.88
2023-01-12T12:05:49.676Z,1.02
2023-01-12T12:08:38.526Z,1.00
2023-01-12T12:11:07.924Z,1.20
2023-01-12T12:13:57.936Z,0.90
2023-01-12T12:16:42.576Z,1.00
2023-01-12T12:19:28.357Z,1.08
2023-01-12T12:22:38.777Z,1.02
2023-01-12T12:25:29.260Z,1.33
2023-01-12T12:28:18.520Z,0.70
2023-01-12T12:31:46.428Z,0.95
2023-01-12T12:35:21.216Z,1.27
2023-01-12T12:38:42.337Z,1.08
2023-01-12T12:42:24.796Z,0.77
2023-01-12T12:45:42.329Z,1.20
2023-01-12T12:51:55.407Z,1.17
2023-01-12T12:54:50.828Z,1.23
2023-01-12T12:58:06.346Z,1.20
2023-01-12T13:00:56.325Z,1.27
2023-01-12T13:07:40.518Z,1.63
2023-01-12T13:13:59.546Z,1.33
2023-01-12T13:17:02.982Z,1.20
2023-01-12T13:20:00.784Z,1.08
2023-01-12T13:24:00.039Z,0.90
2023-01-12T13:27:36.919Z,1.30
2023-01-12T13:30:53.184Z,2.22
2023-01-12T13:33:48.219Z,1.27
2023-01-12T13:45:51.365Z,1.33
2023-01-12T13:48:51.220Z,1.15
2023-01-12T13:52:02.076Z,0.88
2023-01-12T13:55:26.968Z,2.03
2023-01-12T13:58:20.875Z,1.23
2023-01-12T14:04:48.144Z,1.35
2023-01-12T14:07:25.860Z,1.08
2023-01-12T14:10:20.495Z,1.23
2023-01-12T14:13:07.958Z,1.25
2023-01-12T14:16:01.665Z,1.23
2023-01-12T14:18:41.577Z,1.02
2023-01-12T14:21:36.770Z,1.27
2023-01-12T14:26:42.620Z,1.38
2023-01-12T14:29:11.567Z,1.20
2023-01-12T14:31:44.332Z,1.83
2023-01-12T14:34:35.421Z,1.17
2023-01-12T14:37:07.070Z,1.08
2023-01-12T14:39:41.083Z,1.08
2023-01-12T14:42:40.087Z,0.88
2023-01-12T14:45:38.657Z,1.27
2023-01-12T14:48:23.920Z,0.90
2023-01-12T14:51:21.717Z,0.95
2023-01-12T14:53:56.114Z,0.77
2023-01-12T14:56:31.154Z,0.68
2023-01-12T14:59:08.511Z,0.90
2023-01-12T15:01:38.207Z,0.68
2023-01-12T15:04:07.481Z,0.73
2023-01-12T15:06:41.683Z,1.17
2023-01-12T15:09:25.622Z,1.27
2023-01-12T15:11:55.235Z,1.10
2023-01-12T15:14:25.373Z,0.75
2023-01-12T15:17:14.426Z,0.80
2023-01-12T15:20:03.210Z,0.80
2023-01-12T15:22:59.419Z,0.75
2023-01-12T15:25:39.472Z,1.60
2023-01-12T15:28:07.360Z,0.77
2023-01-12T15:30:38.685Z,0.77
2023-01-12T15:33:05.969Z,0.75
2023-01-12T15:35:38.226Z,1.45
2023-01-12T15:38:05.849Z,0.70
2023-01-12T15:40:34.790Z,0.73
2023-01-12T15:43:04.634Z,0.75
2023-01-12T15:45:38.252Z,0.70
2023-01-12T15:48:05.673Z,1.13
2023-01-12T15:50:37.034Z,0.65
2023-01-12T15:53:03.491Z,0.77
2023-01-12T15:56:32.712Z,0.90
2023-01-12T15:58:59.336Z,1.33
2023-01-12T16:01:33.222Z,0.95
2023-01-12T16:04:35.628Z,0.88
2023-01-12T16:06:47.076Z,0.90
2023-01-12T16:09:14.727Z,1.08
2023-01-12T16:11:42.276Z,0.68
2023-01-12T16:14:08.898Z,1.05
2023-01-12T16:16:39.285Z,0.85
2023-01-12T16:19:09.815Z,1.13
2023-01-12T16:21:36.580Z,1.13
2023-01-12T16:24:03.396Z,1.17
2023-01-12T16:26:30.700Z,0.90
2023-01-12T16:28:57.734Z,0.93
2023-01-12T16:31:26.268Z,0.88
2023-01-12T16:33:52.851Z,1.00
2023-01-12T16:36:19.288Z,0.60
2023-01-12T16:38:45.655Z,0.90
2023-01-12T16:41:22.043Z,0.82
2023-01-12T16:43:49.281Z,1.23
2023-01-12T16:46:16.051Z,1.52
2023-01-12T16:48:42.939Z,1.10
2023-01-12T16:51:14.363Z,0.90
2023-01-12T16:53:41.741Z,0.85
2023-01-12T16:56:13.285Z,1.10
2023-01-12T16:58:41.707Z,1.00
2023-01-12T17:01:12.597Z,1.45
2023-01-12T17:03:41.440Z,0.88
2023-01-12T17:08:39.473Z,0.85
2023-01-12T17:11:12.013Z,0.88
2023-01-12T17:13:38.965Z,1.23
2023-01-12T17:16:12.141Z,1.30
2023-01-12T17:18:44.049Z,0.82
2023-01-12T17:21:13.811Z,0.98
2023-01-12T17:23:42.381Z,0.75
2023-01-12T17:26:13.430Z,1.05
2023-01-12T17:28:40.960Z,0.90
2023-01-12T17:31:13.422Z,0.95
2023-01-12T17:33:40.373Z,1.10
2023-01-12T17:36:09.272Z,1.27
2023-01-12T17:38:37.269Z,1.10
2023-01-12T17:41:34.071Z,1.10
2023-01-12T17:44:03.178Z,1.45
2023-01-12T17:46:30.337Z,0.98
2023-01-12T17:49:05.581Z,1.17
2023-01-12T17:51:32.424Z,1.58
2023-01-12T17:54:00.523Z,1.00
2023-01-12T17:56:28.876Z,1.23
2023-01-12T17:58:55.400Z,1.30
2023-01-12T18:01:24.381Z,1.17
2023-01-12T18:03:51.313Z,1.85
2023-01-12T18:06:25.765Z,1.35
2023-01-12T18:08:56.077Z,1.67
2023-01-12T18:11:23.195Z,1.33
2023-01-12T18:13:49.561Z,1.48
2023-01-12T18:16:18.032Z,1.67
2023-01-12T18:18:44.908Z,1.48
2023-01-12T18:21:13.834Z,1.70
2023-01-12T18:23:41.620Z,1.55
2023-01-12T18:26:11.615Z,1.30
2023-01-12T18:28:37.968Z,1.95
2023-01-12T18:31:06.501Z,1.58
2023-01-12T18:33:32.925Z,1.45
2023-01-12T18:35:59.324Z,1.65
2023-01-12T18:38:29.361Z,1.48
2023-01-12T18:41:14.311Z,1.77
2023-01-12T18:43:42.049Z,1.48
2023-01-12T18:46:10.517Z,1.30
2023-01-12T18:48:36.953Z,1.58
2023-01-12T18:51:22.210Z,1.80
2023-01-12T18:53:48.770Z,1.40
2023-01-12T18:56:15.132Z,1.58
2023-01-12T18:58:43.049Z,1.48
2023-01-12T19:01:20.983Z,1.77
2023-01-12T19:03:48.732Z,1.65
2023-01-12T19:06:23.177Z,1.75
2023-01-12T19:09:12.245Z,2.35
2023-01-12T19:11:40.043Z,1.30
2023-01-12T19:14:29.618Z,1.33
2023-01-12T19:17:14.757Z,1.38
2023-01-12T19:19:41.062Z,1.10
2023-01-12T19:22:26.043Z,1.30
2023-01-12T19:25:16.535Z,1.08
2023-01-12T19:28:01.552Z,1.65
2023-01-12T19:30:28.177Z,1.58
2023-01-12T19:32:55.222Z,1.58
2023-01-12T19:35:21.670Z,1.30
2023-01-12T19:37:49.304Z,1.33
2023-01-12T19:40:19.248Z,1.38
2023-01-12T19:43:04.232Z,1.48
2023-01-12T19:45:30.635Z,2.25
2023-01-12T19:47:56.993Z,1.42
2023-01-12T19:50:23.321Z,1.13
2023-01-12T19:52:49.636Z,1.38
2023-01-12T19:55:16.338Z,1.50
2023-01-12T19:57:43.304Z,1.40
2023-01-12T20:00:14.010Z,1.42
2023-01-12T20:02:40.813Z,1.60
2023-01-12T20:05:07.626Z,1.17
2023-01-12T20:07:34.467Z,1.50
2023-01-12T20:10:01.169Z,1.65
2023-01-12T20:12:27.790Z,1.27
2023-01-12T20:14:54.237Z,1.20
2023-01-12T20:17:20.611Z,0.98
2023-01-12T20:19:48.736Z,1.45
2023-01-12T20:22:15.104Z,1.58
2023-01-12T20:24:41.524Z,1.83
2023-01-12T20:27:07.986Z,1.25
2023-01-12T20:29:34.407Z,1.73
2023-01-12T20:32:03.142Z,1.40
2023-01-12T20:34:31.465Z,1.02
2023-01-12T20:36:57.791Z,1.38
2023-01-12T20:39:24.164Z,1.10
2023-01-12T20:41:50.639Z,1.27
2023-01-12T20:44:17.754Z,1.08
2023-01-12T20:46:44.155Z,1.08
2023-01-12T20:49:11.072Z,1.52
2023-01-12T20:51:37.672Z,1.40
2023-01-12T20:54:05.270Z,1.23
2023-01-12T20:56:31.604Z,1.40
2023-01-12T20:58:59.020Z,1.10
2023-01-12T21:01:25.510Z,1.48
2023-01-12T21:03:51.877Z,1.27
2023-01-12T21:06:19.032Z,1.60
2023-01-12T21:08:46.959Z,2.10
2023-01-12T21:11:16.667Z,1.63
2023-01-12T21:13:44.186Z,1.08
2023-01-12T21:16:18.707Z,1.40
2023-01-12T21:18:45.688Z,1.40
2023-01-12T21:21:12.514Z,1.50
2023-01-12T21:23:38.978Z,1.40
2023-01-12T21:26:08.024Z,1.30
2023-01-12T21:28:37.473Z,1.20
2023-01-12T21:31:05.108Z,1.33
2023-01-12T21:33:31.533Z,2.10
2023-01-12T21:35:59.022Z,1.30
2023-01-12T21:38:26.175Z,1.38
2023-01-12T21:40:52.890Z,1.40
2023-01-12T21:43:19.791Z,1.42
2023-01-12T21:45:51.760Z,1.38
2023-01-12T21:48:20.236Z,1.52
2023-01-12T21:50:47.922Z,1.38
2023-01-12T21:53:19.855Z,1.27
2023-01-12T21:55:57.312Z,1.50
2023-01-12T21:58:25.260Z,1.77
2023-01-12T22:00:52.046Z,1.27
2023-01-12T22:03:18.901Z,1.85
2023-01-12T22:05:47.633Z,1.13
2023-01-12T22:08:14.154Z,1.67
2023-01-12T22:10:40.662Z,1.80
2023-01-12T22:13:09.949Z,1.73
2023-01-12T22:18:02.751Z,1.67
2023-01-12T22:20:29.184Z,1.75
2023-01-12T22:22:55.724Z,1.33
2023-01-12T22:25:22.319Z,1.60
2023-01-12T22:27:48.632Z,1.60
2023-01-12T22:30:17.570Z,1.17
2023-01-12T22:32:44.246Z,1.38
2023-01-12T22:35:11.239Z,1.58
2023-01-12T22:37:38.110Z,1.70
2023-01-12T22:40:07.204Z,1.40
2023-01-12T22:42:52.403Z,1.38
2023-01-12T22:45:18.852Z,1.48
2023-01-12T22:47:48.479Z,1.50
2023-01-12T22:50:15.252Z,2.17
2023-01-12T22:52:41.706Z,1.55
2023-01-12T22:55:08.465Z,1.55
2023-01-12T22:57:34.804Z,1.40
2023-01-12T23:00:01.194Z,1.17
2023-01-12T23:02:47.880Z,1.27
2023-01-12T23:05:14.318Z,1.15
2023-01-12T23:07:40.643Z,1.48
2023-01-12T23:10:08.196Z,1.20
2023-01-12T23:12:34.532Z,1.30
2023-01-12T23:15:00.888Z,2.05
2023-01-12T23:17:27.722Z,1.33
2023-01-12T23:19:54.061Z,1.80
2023-01-12T23:22:20.357Z,1.45
2023-01-12T23:24:46.662Z,1.85
2023-01-12T23:27:12.959Z,1.27
2023-01-12T23:29:39.454Z,1.45
2023-01-12T23:32:05.812Z,1.23
2023-01-12T23:34:32.239Z,1.17
2023-01-12T23:36:58.674Z,1.25
2023-01-12T23:39:25.054Z,1.65
2023-01-12T23:41:51.399Z,0.98
2023-01-12T23:44:18.965Z,1.30
2023-01-12T23:46:45.294Z,1.65
2023-01-12T23:49:11.631Z,1.20
2023-01-12T23:51:38.031Z,1.30
2023-01-12T23:54:04.619Z,1.00
2023-01-12T23:56:32.584Z,1.45
2023-01-12T23:58:59.138Z,1.38
